Time;durP1;ratioP1;P1;durP2;ratioP2;P2;SDS_P1;SDS_P2;PMS_P1;PMS_P2;Temp;Humidity;BMP_temperature;BMP_pressure;BME280_temperature;BME280_humidity;BME280_pressure;Samples;Min_cycle;Max_cycle;Signal;HPM_P1;HPM_P2
2023/07/01 00:01:02;;;;;;;4.97;3.60;;;22.60;79.00;;;;;;5074702;28;20227;-73
2023/07/01 00:03:30;;;;;;;4.43;3.30;;;22.50;78.60;;;;;;5040912;28;20282;-72
2023/07/01 00:05:58;;;;;;;5.03;3.67;;;22.50;78.80;;;;;;5058700;28;20210;-72
2023/07/01 00:08:25;;;;;;;4.17;3.40;;;22.50;79.00;;;;;;5054649;28;20263;-73
2023/07/01 00:10:52;;;;;;;4.50;3.17;;;22.50;79.00;;;;;;5054874;28;20281;-73
2023/07/01 00:13:20;;;;;;;5.00;3.43;;;22.50;79.80;;;;;;5053875;28;20302;-74
2023/07/01 00:15:47;;;;;;;6.93;3.47;;;22.60;79.10;;;;;;5053535;28;20240;-74
2023/07/01 00:18:14;;;;;;;4.53;3.40;;;22.50;79.10;;;;;;5053860;28;20213;-73
2023/07/01 00:20:42;;;;;;;5.70;3.10;;;22.40;79.40;;;;;;5053551;28;20226;-74
2023/07/01 00:23:09;;;;;;;5.00;3.43;;;22.40;79.60;;;;;;5056993;28;20225;-74
2023/07/01 00:25:36;;;;;;;6.07;3.90;;;22.40;79.60;;;;;;5063361;28;20200;-74
2023/07/01 00:28:03;;;;;;;6.37;4.47;;;22.40;79.60;;;;;;5053657;28;20260;-74
2023/07/01 00:30:31;;;;;;;5.43;3.40;;;22.40;79.60;;;;;;5053408;28;20217;-74
2023/07/01 00:32:58;;;;;;;5.43;4.03;;;22.40;79.50;;;;;;5053137;28;20214;-74
2023/07/01 00:35:25;;;;;;;4.27;3.13;;;22.40;79.70;;;;;;5063014;28;20239;-73
2023/07/01 00:37:52;;;;;;;4.90;3.50;;;22.40;79.70;;;;;;5073168;28;20688;-73
2023/07/01 00:40:19;;;;;;;4.33;3.80;;;22.30;79.50;;;;;;5072715;28;20213;-74
2023/07/01 00:42:46;;;;;;;3.63;3.30;;;22.30;79.50;;;;;;5065349;28;20206;-73
2023/07/01 00:45:14;;;;;;;6.17;4.00;;;22.40;79.60;;;;;;5057502;28;20227;-73
2023/07/01 00:47:42;;;;;;;5.37;3.50;;;22.40;79.60;;;;;;5072801;28;20225;-74
2023/07/01 00:50:11;;;;;;;3.90;3.57;;;22.30;79.60;;;;;;5072679;28;20322;-73
2023/07/01 00:52:39;;;;;;;4.37;3.77;;;22.30;79.90;;;;;;5072783;28;20212;-74
2023/07/01 00:55:07;;;;;;;4.87;3.50;;;22.20;80.70;;;;;;5064828;28;20821;-73
2023/07/01 00:57:35;;;;;;;5.67;2.90;;;22.20;80.10;;;;;;5052399;28;20257;-73
2023/07/01 01:00:05;;;;;;;5.23;3.50;;;22.20;80.20;;;;;;5052495;28;20224;-72
2023/07/01 01:02:42;;;;;;;3.87;3.57;;;22.20;80.30;;;;;;5052017;28;20284;-74
2023/07/01 01:05:17;;;;;;;5.53;3.60;;;22.10;80.40;;;;;;5066791;28;20182;-74
2023/07/01 01:07:50;;;;;;;3.70;3.37;;;22.10;80.30;;;;;;5072639;28;20700;-73
2023/07/01 01:10:23;;;;;;;3.63;3.33;;;22.10;80.30;;;;;;5072838;28;20221;-73
2023/07/01 01:12:52;;;;;;;5.70;4.07;;;22.10;80.30;;;;;;5072635;28;20233;-74
2023/07/01 01:15:20;;;;;;;7.17;3.77;;;22.00;80.20;;;;;;5071604;28;20213;-73
2023/07/01 01:17:48;;;;;;;5.90;3.50;;;22.00;80.60;;;;;;5072737;28;20403;-73
2023/07/01 01:20:20;;;;;;;5.73;3.70;;;22.00;80.60;;;;;;5071367;28;20229;-74
2023/07/01 01:22:50;;;;;;;6.73;3.20;;;21.90;80.70;;;;;;5072098;28;20679;-74
2023/07/01 01:25:24;;;;;;;5.33;3.70;;;21.90;80.70;;;;;;5060237;28;20201;-73
2023/07/01 01:27:53;;;;;;;6.00;3.63;;;22.00;80.80;;;;;;5072469;28;20668;-73
2023/07/01 01:30:22;;;;;;;3.60;3.30;;;22.00;80.70;;;;;;5072334;28;20205;-74
2023/07/01 01:32:49;;;;;;;5.77;3.73;;;22.00;80.60;;;;;;5072277;28;20564;-73
2023/07/01 01:35:16;;;;;;;3.57;3.27;;;21.90;80.40;;;;;;5064289;28;20721;-75
2023/07/01 01:37:48;;;;;;;5.23;3.47;;;22.00;80.60;;;;;;5052689;28;20213;-74
2023/07/01 01:40:20;;;;;;;6.07;3.40;;;22.00;80.60;;;;;;5052468;28;20201;-74
2023/07/01 01:42:47;;;;;;;6.03;3.60;;;22.00;80.30;;;;;;5060229;28;20212;-74
2023/07/01 01:45:19;;;;;;;5.87;3.43;;;22.00;80.20;;;;;;5071565;28;20311;-74
2023/07/01 01:47:48;;;;;;;3.87;3.47;;;22.00;80.10;;;;;;5071968;28;20201;-73
2023/07/01 01:50:19;;;;;;;4.17;3.30;;;22.00;79.90;;;;;;5072037;28;20209;-74
2023/07/01 01:52:49;;;;;;;5.03;3.30;;;21.90;80.00;;;;;;5078108;28;20246;-74
2023/07/01 01:55:17;;;;;;;5.63;3.60;;;21.90;80.00;;;;;;5067785;28;20221;-74
2023/07/01 01:57:44;;;;;;;3.70;3.20;;;21.90;79.90;;;;;;5053517;28;20236;-74
2023/07/01 02:00:13;;;;;;;3.83;3.50;;;21.90;79.90;;;;;;5051995;28;20650;-74
2023/07/01 02:02:41;;;;;;;3.83;3.43;;;21.90;79.80;;;;;;5051544;28;20218;-75
2023/07/01 02:05:08;;;;;;;5.10;4.00;;;21.90;79.70;;;;;;5062977;28;20630;-74
2023/07/01 02:07:35;;;;;;;5.70;3.70;;;21.80;79.60;;;;;;5072139;28;20213;-73
2023/07/01 02:10:04;;;;;;;4.00;3.60;;;21.90;79.70;;;;;;5072053;28;20225;-74
2023/07/01 02:12:31;;;;;;;6.00;3.77;;;21.70;79.50;;;;;;5070654;28;20201;-74
2023/07/01 02:14:58;;;;;;;3.50;3.10;;;21.60;79.70;;;;;;5071280;28;20193;-74
2023/07/01 02:17:26;;;;;;;4.07;3.67;;;21.60;79.80;;;;;;5074058;28;20223;-73
2023/07/01 02:19:54;;;;;;;4.30;3.43;;;21.50;79.70;;;;;;5075962;28;20225;-74
2023/07/01 02:22:21;;;;;;;6.43;3.57;;;21.40;79.80;;;;;;5040313;28;20231;-74
2023/07/01 02:24:48;;;;;;;4.77;3.53;;;21.40;80.60;;;;;;5075661;28;20200;-74
2023/07/01 02:27:15;;;;;;;5.47;3.93;;;21.30;80.10;;;;;;5075534;28;20683;-74
2023/07/01 02:29:44;;;;;;;5.03;3.87;;;21.30;80.30;;;;;;5075266;28;20221;-74
2023/07/01 02:32:11;;;;;;;3.90;3.50;;;21.30;80.30;;;;;;5075069;28;20208;-74
2023/07/01 02:34:38;;;;;;;4.47;3.60;;;21.30;80.30;;;;;;5075249;28;20213;-73
2023/07/01 02:37:06;;;;;;;4.00;3.53;;;21.30;80.20;;;;;;5075524;28;20232;-74
2023/07/01 02:39:33;;;;;;;6.57;3.70;;;21.30;80.10;;;;;;5074925;28;20198;-75
2023/07/01 02:42:00;;;;;;;4.07;3.60;;;21.30;79.90;;;;;;5075554;28;20225;-74
2023/07/01 02:44:27;;;;;;;4.07;3.67;;;21.30;79.90;;;;;;5075235;28;20209;-74
2023/07/01 02:46:54;;;;;;;4.20;3.07;;;21.30;79.50;;;;;;5075050;28;20594;-74
2023/07/01 02:49:21;;;;;;;3.40;3.10;;;21.30;79.50;;;;;;5075466;28;20208;-74
2023/07/01 02:51:48;;;;;;;4.37;3.27;;;21.30;79.50;;;;;;5075348;28;20250;-74
2023/07/01 02:54:16;;;;;;;4.73;3.47;;;21.30;80.40;;;;;;5074645;28;20236;-75
2023/07/01 02:56:43;;;;;;;4.03;3.63;;;21.20;79.70;;;;;;5055036;28;20218;-74
2023/07/01 02:59:11;;;;;;;4.57;3.60;;;21.20;79.70;;;;;;5055232;28;20213;-74
2023/07/01 03:01:38;;;;;;;3.97;3.53;;;21.20;79.70;;;;;;5054970;28;20224;-73
2023/07/01 03:04:07;;;;;;;4.23;3.00;;;21.20;79.60;;;;;;5054665;28;20665;-74
2023/07/01 03:06:37;;;;;;;4.93;3.07;;;21.10;79.50;;;;;;5055383;28;20218;-73
2023/07/01 03:09:07;;;;;;;5.00;3.40;;;21.10;79.60;;;;;;5054978;28;20754;-74
2023/07/01 03:11:35;;;;;;;3.87;3.43;;;21.10;79.60;;;;;;5054854;28;20241;-75
2023/07/01 03:14:02;;;;;;;5.40;3.80;;;21.10;79.20;;;;;;5064471;28;20205;-72
2023/07/01 03:16:30;;;;;;;4.20;3.40;;;21.00;79.10;;;;;;5054695;28;20225;-73
2023/07/01 03:18:57;;;;;;;4.17;3.77;;;21.10;79.20;;;;;;5061203;28;20312;-74
2023/07/01 03:21:24;;;;;;;5.30;3.70;;;21.00;79.10;;;;;;5074985;28;20594;-73
2023/07/01 03:23:51;;;;;;;6.50;3.50;;;20.90;79.00;;;;;;5074561;28;20201;-73
2023/07/01 03:26:18;;;;;;;5.93;3.80;;;20.90;79.20;;;;;;5074515;28;20536;-73
2023/07/01 03:28:46;;;;;;;4.40;3.43;;;20.80;79.20;;;;;;5073592;28;20201;-74
2023/07/01 03:31:13;;;;;;;4.67;4.00;;;20.80;79.50;;;;;;5066699;28;20236;-74
2023/07/01 03:33:40;;;;;;;6.53;3.80;;;20.70;79.50;;;;;;5054628;28;20249;-74
2023/07/01 03:36:07;;;;;;;4.70;3.63;;;20.70;79.70;;;;;;5054326;28;20228;-74
2023/07/01 03:38:34;;;;;;;4.07;3.60;;;20.60;79.60;;;;;;5054445;28;20206;-73
2023/07/01 03:41:02;;;;;;;3.90;3.50;;;20.60;79.80;;;;;;5054532;28;20206;-74
2023/07/01 03:43:29;;;;;;;3.40;3.10;;;20.50;79.90;;;;;;5068353;28;20221;-73
2023/07/01 03:45:57;;;;;;;3.80;3.40;;;20.50;80.80;;;;;;5072540;28;20205;-73
2023/07/01 03:48:24;;;;;;;4.47;3.10;;;20.40;80.00;;;;;;5074419;28;20208;-73
2023/07/01 03:50:51;;;;;;;6.07;3.73;;;20.30;80.10;;;;;;5074458;28;20209;-73
2023/07/01 03:53:17;;;;;;;4.80;3.40;;;20.30;80.10;;;;;;5074271;28;20582;-73
2023/07/01 03:55:45;;;;;;;4.50;3.23;;;20.30;80.30;;;;;;5073474;28;20233;-74
2023/07/01 03:58:21;;;;;;;4.03;3.63;;;20.30;80.40;;;;;;5074219;28;20785;-74
2023/07/01 04:00:48;;;;;;;5.83;3.73;;;20.40;80.60;;;;;;5073639;28;20205;-74
2023/07/01 04:03:16;;;;;;;4.00;3.47;;;20.40;81.30;;;;;;5074090;28;20590;-75
2023/07/01 04:05:43;;;;;;;4.53;3.23;;;20.50;80.40;;;;;;5073717;28;20565;-74
2023/07/01 04:08:10;;;;;;;4.50;3.40;;;20.50;80.30;;;;;;5063500;28;20225;-74
2023/07/01 04:10:37;;;;;;;5.50;3.37;;;20.50;80.30;;;;;;5052848;28;20210;-74
2023/07/01 04:13:04;;;;;;;3.20;2.90;;;20.60;80.20;;;;;;5055348;28;20216;-74
2023/07/01 04:15:31;;;;;;;5.47;3.10;;;20.60;80.10;;;;;;5057539;28;20230;-74
2023/07/01 04:17:58;;;;;;;3.60;3.10;;;20.70;80.00;;;;;;5055949;28;20212;-74
2023/07/01 04:20:26;;;;;;;5.43;3.73;;;20.70;80.60;;;;;;5052797;28;20316;-74
2023/07/01 04:22:53;;;;;;;3.40;3.10;;;20.70;80.00;;;;;;5055629;28;20306;-74
2023/07/01 04:25:20;;;;;;;5.30;3.23;;;20.70;80.00;;;;;;5073095;28;20769;-74
2023/07/01 04:27:47;;;;;;;4.03;3.40;;;20.70;79.90;;;;;;5073242;28;21000;-75
2023/07/01 04:30:14;;;;;;;6.30;3.40;;;20.70;80.00;;;;;;5074041;28;20315;-74
2023/07/01 04:32:41;;;;;;;3.07;2.87;;;20.70;80.10;;;;;;5072983;28;20224;-73
2023/07/01 04:35:09;;;;;;;4.67;2.67;;;20.70;79.70;;;;;;5073538;28;20213;-73
2023/07/01 04:37:37;;;;;;;3.50;2.90;;;20.70;79.40;;;;;;5081395;28;20233;-74
2023/07/01 04:40:05;;;;;;;4.80;2.93;;;20.80;79.10;;;;;;5065262;28;20209;-73
2023/07/01 04:42:33;;;;;;;3.73;2.97;;;20.80;78.40;;;;;;5059366;28;20247;-74
2023/07/01 04:44:59;;;;;;;5.50;3.20;;;20.80;78.40;;;;;;5073884;28;20201;-74
2023/07/01 04:47:27;;;;;;;4.20;2.70;;;20.90;78.00;;;;;;5073624;28;20296;-74
2023/07/01 04:49:54;;;;;;;6.27;2.77;;;20.90;77.20;;;;;;5073357;28;20220;-74
2023/07/01 04:52:21;;;;;;;2.87;2.57;;;21.00;77.00;;;;;;5073639;28;20687;-73
2023/07/01 04:54:50;;;;;;;3.03;2.73;;;21.00;77.50;;;;;;5073453;28;20229;-74
2023/07/01 04:57:17;;;;;;;3.67;2.47;;;21.00;76.50;;;;;;5072919;28;20406;-74
2023/07/01 04:59:44;;;;;;;3.33;2.57;;;21.10;76.30;;;;;;5073420;28;20321;-74
2023/07/01 05:02:10;;;;;;;3.10;2.70;;;21.10;75.60;;;;;;5073444;28;20201;-74
2023/07/01 05:04:38;;;;;;;3.43;2.60;;;21.20;76.10;;;;;;5072172;28;20208;-75
2023/07/01 05:07:05;;;;;;;3.13;2.80;;;21.30;75.00;;;;;;5055376;28;20208;-74
2023/07/01 05:09:33;;;;;;;3.87;2.40;;;21.30;74.20;;;;;;5053336;28;20739;-73
2023/07/01 05:12:01;;;;;;;3.03;2.37;;;21.20;74.10;;;;;;5053036;28;20547;-73
2023/07/01 05:14:28;;;;;;;2.60;2.40;;;21.10;73.20;;;;;;5053086;28;20222;-74
2023/07/01 05:16:54;;;;;;;3.80;2.50;;;21.20;73.70;;;;;;5068692;28;20576;-74
2023/07/01 05:19:21;;;;;;;4.70;2.23;;;21.30;73.40;;;;;;5071335;28;20708;-74
2023/07/01 05:21:51;;;;;;;3.57;2.30;;;21.30;71.90;;;;;;5072877;28;20231;-74
2023/07/01 05:24:18;;;;;;;3.53;2.10;;;21.40;70.80;;;;;;5062930;28;20224;-73
2023/07/01 05:26:49;;;;;;;4.33;2.33;;;21.40;71.70;;;;;;5066694;28;20274;-73
2023/07/01 05:29:20;;;;;;;3.90;2.33;;;21.50;70.00;;;;;;5073142;28;20204;-74
2023/07/01 05:31:48;;;;;;;6.50;2.57;;;21.50;69.70;;;;;;5072955;28;20196;-73
2023/07/01 05:34:15;;;;;;;7.00;2.90;;;21.60;69.20;;;;;;5087936;28;20211;-74
2023/07/01 05:36:42;;;;;;;2.70;2.23;;;21.60;68.70;;;;;;5064233;28;20838;-74
2023/07/01 05:39:10;;;;;;;2.77;2.10;;;21.60;68.70;;;;;;5056952;28;20217;-73
2023/07/01 05:41:37;;;;;;;3.57;2.40;;;21.70;68.80;;;;;;5068459;28;20799;-73
2023/07/01 05:44:04;;;;;;;4.80;2.47;;;21.70;68.60;;;;;;5072458;28;20235;-74
2023/07/01 05:46:32;;;;;;;6.17;2.87;;;21.70;68.50;;;;;;5072487;28;20546;-74
2023/07/01 05:48:59;;;;;;;2.57;2.20;;;21.90;68.00;;;;;;5072645;28;20232;-74
2023/07/01 05:51:26;;;;;;;4.87;2.60;;;21.90;68.60;;;;;;5072350;28;20207;-74
2023/07/01 05:53:53;;;;;;;4.37;2.30;;;22.00;68.00;;;;;;5072768;28;20226;-74
2023/07/01 05:56:20;;;;;;;3.23;2.60;;;22.00;66.90;;;;;;5072108;28;20215;-74
2023/07/01 05:58:47;;;;;;;3.93;2.10;;;22.10;66.80;;;;;;5072397;28;20718;-74
2023/07/01 06:01:15;;;;;;;4.03;2.57;;;22.10;65.40;;;;;;5072807;28;20236;-74
2023/07/01 06:03:43;;;;;;;5.23;2.93;;;22.10;65.40;;;;;;5070508;28;20209;-74
2023/07/01 06:06:10;;;;;;;2.93;2.20;;;22.10;65.10;;;;;;5072705;28;20599;-74
2023/07/01 06:08:37;;;;;;;3.00;2.50;;;22.10;65.50;;;;;;5072045;28;20255;-74
2023/07/01 06:11:04;;;;;;;4.13;2.77;;;22.20;65.10;;;;;;5068964;28;20234;-75
2023/07/01 06:13:31;;;;;;;6.30;3.07;;;22.20;64.20;;;;;;5068277;28;20707;-74
2023/07/01 06:15:59;;;;;;;4.53;2.60;;;22.10;63.70;;;;;;5072177;28;20258;-74
2023/07/01 06:18:26;;;;;;;5.27;2.50;;;22.20;64.30;;;;;;5070304;28;20217;-74
2023/07/01 06:20:54;;;;;;;3.97;2.53;;;22.30;64.80;;;;;;5072764;28;20221;-74
2023/07/01 06:23:21;;;;;;;5.97;2.77;;;22.40;64.40;;;;;;5069519;28;20235;-74
2023/07/01 06:25:47;;;;;;;6.27;3.03;;;22.50;64.10;;;;;;5057968;28;20293;-74
2023/07/01 06:28:15;;;;;;;3.43;2.50;;;22.50;62.90;;;;;;5070475;28;20225;-74
2023/07/01 06:30:41;;;;;;;10.80;2.20;;;22.50;62.20;;;;;;5076917;28;20219;-72
2023/07/01 06:33:08;;;;;;;4.10;2.70;;;22.50;62.60;;;;;;5069881;28;20224;-74
2023/07/01 06:35:35;;;;;;;6.43;2.40;;;22.50;61.80;;;;;;5036277;28;20300;-74
2023/07/01 06:38:04;;;;;;;4.20;2.70;;;22.50;62.40;;;;;;5071070;28;20221;-73
2023/07/01 06:40:30;;;;;;;4.07;2.30;;;22.50;63.20;;;;;;5058936;28;20216;-75
2023/07/01 06:42:57;;;;;;;4.00;2.40;;;22.50;63.20;;;;;;5071699;28;20884;-73
2023/07/01 06:45:24;;;;;;;3.90;2.80;;;22.60;62.70;;;;;;5071913;28;20221;-74
2023/07/01 06:47:51;;;;;;;3.90;2.53;;;22.70;63.30;;;;;;5071430;28;20216;-75
2023/07/01 06:50:18;;;;;;;5.93;2.77;;;22.80;63.00;;;;;;5071751;28;20233;-74
2023/07/01 06:52:45;;;;;;;4.97;2.50;;;22.70;62.60;;;;;;5071314;28;20186;-74
2023/07/01 06:55:13;;;;;;;3.67;2.50;;;22.80;62.60;;;;;;5069908;28;20748;-74
2023/07/01 06:57:40;;;;;;;4.07;2.60;;;22.90;62.60;;;;;;5060688;28;20232;-72
2023/07/01 07:00:10;;;;;;;2.53;2.33;;;22.90;61.60;;;;;;5071691;28;20565;-73
2023/07/01 07:02:37;;;;;;;2.67;2.37;;;23.00;61.30;;;;;;5069631;28;20225;-74
2023/07/01 07:05:05;;;;;;;3.90;2.70;;;23.00;61.20;;;;;;5071677;28;20190;-74
2023/07/01 07:07:32;;;;;;;3.40;2.57;;;23.00;60.80;;;;;;5062260;28;20634;-74
2023/07/01 07:09:59;;;;;;;6.53;2.90;;;23.00;60.50;;;;;;5073056;28;20662;-73
2023/07/01 07:12:27;;;;;;;3.23;2.57;;;23.10;61.10;;;;;;5070204;28;20531;-73
2023/07/01 07:14:54;;;;;;;4.33;2.60;;;23.20;61.20;;;;;;5061595;28;20221;-74
2023/07/01 07:17:21;;;;;;;3.87;2.50;;;23.30;61.00;;;;;;5069824;28;20240;-74
2023/07/01 07:19:48;;;;;;;2.80;2.50;;;23.50;60.40;;;;;;5061861;28;20236;-74
2023/07/01 07:22:14;;;;;;;4.43;2.57;;;23.50;58.80;;;;;;5069220;28;20194;-75
2023/07/01 07:24:41;;;;;;;4.77;2.50;;;23.50;58.60;;;;;;5067660;28;20197;-75
2023/07/01 07:27:08;;;;;;;4.40;3.00;;;23.60;58.30;;;;;;5074630;28;20225;-74
2023/07/01 07:29:37;;;;;;;3.33;2.40;;;23.70;58.30;;;;;;5074645;28;20582;-74
2023/07/01 07:32:04;;;;;;;8.33;2.37;;;23.70;58.30;;;;;;5066555;28;20264;-74
2023/07/01 07:34:31;;;;;;;2.67;2.23;;;23.70;58.10;;;;;;5063408;28;20194;-74
2023/07/01 07:36:58;;;;;;;3.20;2.50;;;23.70;57.50;;;;;;5059359;28;20665;-76
2023/07/01 07:39:25;;;;;;;4.53;2.80;;;23.70;57.40;;;;;;5072977;28;20232;-74
2023/07/01 07:41:53;;;;;;;3.37;2.40;;;23.80;57.50;;;;;;5062349;28;20209;-74
2023/07/01 07:44:19;;;;;;;2.90;2.40;;;23.80;57.50;;;;;;5054476;28;20316;-73
2023/07/01 07:46:48;;;;;;;6.27;2.20;;;23.80;57.00;;;;;;5062249;28;20212;-73
2023/07/01 07:49:16;;;;;;;3.23;2.20;;;23.90;57.10;;;;;;5068757;28;20579;-73
2023/07/01 07:51:43;;;;;;;3.50;2.63;;;24.00;56.60;;;;;;5067333;28;20834;-75
2023/07/01 07:54:10;;;;;;;4.37;2.50;;;24.00;56.60;;;;;;5073070;28;20209;-73
2023/07/01 07:56:37;;;;;;;5.20;2.23;;;24.00;56.30;;;;;;5070295;28;20208;-74
2023/07/01 07:59:04;;;;;;;5.90;2.53;;;24.10;56.70;;;;;;5054080;28;20210;-74
2023/07/01 08:01:31;;;;;;;4.90;3.10;;;24.10;56.60;;;;;;5053913;28;20217;-74
2023/07/01 08:03:59;;;;;;;4.57;2.90;;;24.20;56.30;;;;;;5053925;28;20217;-75
2023/07/01 08:06:26;;;;;;;4.87;3.20;;;24.20;56.10;;;;;;5065033;28;20205;-74
2023/07/01 08:08:53;;;;;;;8.00;4.13;;;24.30;56.40;;;;;;5074053;28;20322;-75
2023/07/01 08:11:19;;;;;;;5.83;3.40;;;24.30;56.10;;;;;;5073934;28;20634;-74
2023/07/01 08:13:46;;;;;;;4.77;3.30;;;24.40;56.90;;;;;;5072104;28;20207;-74
2023/07/01 08:16:14;;;;;;;7.80;4.57;;;24.50;57.00;;;;;;5060033;28;20233;-74
2023/07/01 08:18:41;;;;;;;6.20;4.00;;;24.60;55.50;;;;;;5053914;28;20291;-75
2023/07/01 08:21:09;;;;;;;8.40;4.80;;;24.60;55.70;;;;;;5053236;28;20325;-74
2023/07/01 08:23:38;;;;;;;8.87;5.13;;;24.60;55.90;;;;;;5055271;28;20309;-73
2023/07/01 08:26:04;;;;;;;6.83;4.37;;;24.70;55.30;;;;;;5054142;28;20220;-75
2023/07/01 08:28:31;;;;;;;6.00;4.43;;;24.70;55.70;;;;;;5053765;28;20222;-75
2023/07/01 08:30:59;;;;;;;6.47;4.60;;;24.60;54.70;;;;;;5053565;28;20284;-73
2023/07/01 08:33:26;;;;;;;5.00;4.43;;;24.40;54.30;;;;;;5073089;28;20211;-74
2023/07/01 08:35:53;;;;;;;6.43;4.90;;;24.40;55.00;;;;;;5072819;28;20197;-74
2023/07/01 08:38:21;;;;;;;6.77;4.77;;;24.50;55.60;;;;;;5073421;28;20228;-74
2023/07/01 08:40:50;;;;;;;7.40;4.60;;;24.50;55.20;;;;;;5072903;28;20282;-73
2023/07/01 08:43:20;;;;;;;7.63;4.40;;;24.60;55.10;;;;;;5061501;28;20217;-74
2023/07/01 08:45:50;;;;;;;6.40;4.53;;;24.60;55.40;;;;;;5052919;28;20209;-74
2023/07/01 08:48:22;;;;;;;7.63;4.07;;;24.80;55.80;;;;;;5053737;28;20196;-75
2023/07/01 08:50:56;;;;;;;9.07;4.20;;;24.90;55.70;;;;;;5072549;28;20205;-75
2023/07/01 08:53:26;;;;;;;10.80;4.07;;;25.10;55.40;;;;;;5065734;28;20247;-73
2023/07/01 08:55:54;;;;;;;5.70;3.13;;;25.20;54.90;;;;;;5053347;28;20207;-75
2023/07/01 08:58:21;;;;;;;6.20;3.40;;;25.40;54.60;;;;;;5052811;28;20240;-75
2023/07/01 09:00:48;;;;;;;7.50;3.87;;;25.40;52.80;;;;;;5033682;28;20217;-74
2023/07/01 09:03:16;;;;;;;7.03;3.60;;;25.30;53.30;;;;;;5062377;28;20304;-75
2023/07/01 09:05:42;;;;;;;6.03;3.33;;;25.30;53.00;;;;;;5072813;28;20233;-74
2023/07/01 09:08:09;;;;;;;6.20;3.73;;;25.50;53.20;;;;;;5065573;28;20205;-74
2023/07/01 09:10:38;;;;;;;3.83;3.27;;;25.60;53.10;;;;;;5052507;28;20237;-74
2023/07/01 09:13:14;;;;;;;5.20;3.10;;;25.70;51.20;;;;;;5059533;28;20204;-75
2023/07/01 09:15:46;;;;;;;6.13;2.80;;;25.60;50.30;;;;;;5052902;28;20205;-74
2023/07/01 09:18:23;;;;;;;6.70;3.67;;;25.60;50.20;;;;;;5052524;28;20236;-74
2023/07/01 09:20:50;;;;;;;5.50;3.47;;;25.70;50.70;;;;;;5052377;28;20687;-74
2023/07/01 09:23:31;;;;;;;6.07;3.97;;;25.80;51.20;;;;;;5053726;28;20229;-73
2023/07/01 09:26:21;;;;;;;3.73;2.90;;;25.80;50.40;;;;;;5051963;28;20221;-75
2023/07/01 09:28:50;;;;;;;3.93;2.70;;;25.90;49.10;;;;;;5052276;28;20234;-74
2023/07/01 09:31:18;;;;;;;6.43;2.70;;;25.80;50.00;;;;;;5053328;28;20202;-74
2023/07/01 09:34:00;;;;;;;8.13;3.10;;;25.70;49.80;;;;;;5051755;28;20221;-73
2023/07/01 09:36:28;;;;;;;3.97;3.00;;;25.60;50.80;;;;;;5052154;28;20325;-73
2023/07/01 09:38:56;;;;;;;4.37;3.07;;;25.70;52.00;;;;;;5068802;28;20217;-75
2023/07/01 09:41:26;;;;;;;2.77;2.40;;;25.80;51.20;;;;;;5060836;28;20222;-75
2023/07/01 09:43:55;;;;;;;5.53;2.40;;;25.90;51.50;;;;;;5069282;28;20220;-74
2023/07/01 09:46:23;;;;;;;5.30;2.80;;;26.00;51.60;;;;;;5070485;28;20256;-74
2023/07/01 09:48:52;;;;;;;5.77;2.70;;;26.00;51.50;;;;;;5072307;28;20201;-76
2023/07/01 09:51:20;;;;;;;5.03;2.90;;;26.00;50.80;;;;;;5063204;28;20206;-74
2023/07/01 09:53:47;;;;;;;6.03;2.50;;;26.10;50.70;;;;;;5062040;28;20230;-74
2023/07/01 09:56:16;;;;;;;3.17;2.53;;;26.30;50.10;;;;;;5051853;28;20210;-74
2023/07/01 09:58:45;;;;;;;4.27;2.53;;;26.50;50.10;;;;;;5069136;28;20628;-74
2023/07/01 10:01:13;;;;;;;4.27;2.17;;;26.60;49.10;;;;;;5071642;28;20203;-74
2023/07/01 10:03:40;;;;;;;2.87;2.63;;;26.50;49.30;;;;;;5072041;28;20216;-75
2023/07/01 10:06:07;;;;;;;3.33;2.53;;;26.50;48.80;;;;;;5071900;28;20735;-74
2023/07/01 10:08:34;;;;;;;6.90;2.57;;;26.50;49.80;;;;;;5072076;28;20214;-74
2023/07/01 10:11:07;;;;;;;4.03;2.60;;;26.60;49.50;;;;;;5075652;28;20242;-74
2023/07/01 10:13:43;;;;;;;4.00;2.93;;;26.60;49.50;;;;;;5086766;28;20197;-74
2023/07/01 10:16:11;;;;;;;4.43;2.77;;;26.70;49.50;;;;;;5086434;28;20205;-74
2023/07/01 10:18:38;;;;;;;3.17;2.50;;;26.90;49.10;;;;;;5070713;28;20229;-75
2023/07/01 10:21:28;;;;;;;2.73;2.23;;;27.10;49.50;;;;;;5085284;28;20227;-74
2023/07/01 10:23:56;;;;;;;4.63;2.43;;;27.10;48.10;;;;;;5082730;28;20676;-75
2023/07/01 10:26:40;;;;;;;3.43;2.67;;;27.10;48.10;;;;;;5079540;28;20256;-74
2023/07/01 10:29:38;;;;;;;3.07;2.27;;;26.80;47.80;;;;;;5036057;28;20231;-74
2023/07/01 10:32:32;;;;;;;2.70;2.23;;;26.80;48.20;;;;;;5071816;28;20708;-75
2023/07/01 10:35:14;;;;;;;5.60;2.63;;;26.60;48.00;;;;;;5071927;28;20233;-75
2023/07/01 10:37:41;;;;;;;3.77;2.40;;;26.50;48.50;;;;;;5053071;28;20230;-74
2023/07/01 10:40:44;;;;;;;4.70;2.33;;;26.50;49.60;;;;;;5065538;28;20210;-74
2023/07/01 10:43:26;;;;;;;3.30;2.57;;;26.70;49.80;;;;;;5058628;28;20232;-74
2023/07/01 10:46:13;;;;;;;5.77;2.63;;;26.60;49.10;;;;;;5067900;28;20190;-74
2023/07/01 10:48:42;;;;;;;5.13;2.67;;;26.60;48.70;;;;;;5055974;28;20240;-73
2023/07/01 10:51:11;;;;;;;4.97;2.87;;;26.60;49.20;;;;;;5073183;28;20212;-75
2023/07/01 10:53:59;;;;;;;4.93;2.60;;;26.70;49.60;;;;;;5075847;28;20236;-74
2023/07/01 10:56:28;;;;;;;5.17;3.00;;;26.70;49.00;;;;;;5065598;28;20210;-73
2023/07/01 10:59:22;;;;;;;5.37;3.47;;;26.70;49.00;;;;;;5054639;28;20226;-74
2023/07/01 11:01:50;;;;;;;6.60;3.00;;;26.50;48.70;;;;;;5055121;28;20217;-74
2023/07/01 11:04:20;;;;;;;8.17;3.27;;;26.50;49.30;;;;;;5055196;28;20553;-74
2023/07/01 11:06:49;;;;;;;4.53;3.13;;;26.50;49.10;;;;;;5055443;28;20583;-74
2023/07/01 11:09:17;;;;;;;5.60;3.17;;;26.40;48.50;;;;;;5055128;28;20209;-74
2023/07/01 11:11:44;;;;;;;4.97;2.90;;;26.30;49.70;;;;;;5055277;28;20607;-75
2023/07/01 11:14:12;;;;;;;5.73;3.10;;;26.30;49.60;;;;;;5069490;28;20221;-74
2023/07/01 11:16:39;;;;;;;4.77;2.90;;;26.40;50.10;;;;;;5063521;28;20203;-74
2023/07/01 11:19:08;;;;;;;4.20;2.90;;;26.50;49.80;;;;;;5054498;28;20706;-75
2023/07/01 11:21:37;;;;;;;6.00;2.83;;;26.60;49.90;;;;;;5055830;28;20630;-73
2023/07/01 11:24:06;;;;;;;4.00;2.50;;;26.50;49.50;;;;;;5071525;28;20218;-74
2023/07/01 11:26:34;;;;;;;3.83;2.70;;;26.40;50.10;;;;;;5054169;28;20225;-74
2023/07/01 11:29:02;;;;;;;5.53;2.80;;;26.50;50.40;;;;;;5061263;28;20193;-73
2023/07/01 11:31:33;;;;;;;3.60;2.60;;;26.50;49.80;;;;;;5074199;28;20209;-73
2023/07/01 11:34:01;;;;;;;4.20;2.53;;;26.50;49.80;;;;;;5073934;28;20218;-74
2023/07/01 11:36:37;;;;;;;4.57;3.63;;;26.50;49.80;;;;;;5073977;28;20296;-74
2023/07/01 11:39:09;;;;;;;3.13;2.43;;;26.40;50.10;;;;;;5070881;28;20221;-74
2023/07/01 11:41:37;;;;;;;3.97;2.20;;;26.40;51.40;;;;;;5061183;28;20546;-73
2023/07/01 11:44:06;;;;;;;2.90;2.33;;;26.40;51.00;;;;;;5073504;28;20663;-74
2023/07/01 11:46:34;;;;;;;3.17;2.80;;;26.30;51.20;;;;;;5073772;28;20294;-73
2023/07/01 11:49:15;;;;;;;3.63;2.50;;;26.10;51.00;;;;;;5071319;28;20213;-75
2023/07/01 11:51:45;;;;;;;5.67;2.40;;;26.10;50.70;;;;;;5073542;28;20258;-74
2023/07/01 11:54:13;;;;;;;4.40;2.30;;;26.10;51.30;;;;;;5073405;28;20209;-74
2023/07/01 11:56:40;;;;;;;3.87;2.10;;;26.20;50.90;;;;;;5073037;28;20875;-74
2023/07/01 11:59:07;;;;;;;4.07;2.60;;;26.30;51.40;;;;;;5072972;28;20221;-74
2023/07/01 12:01:37;;;;;;;4.43;2.30;;;26.30;50.90;;;;;;5073709;28;20563;-73
2023/07/01 12:04:16;;;;;;;4.87;2.73;;;26.40;50.90;;;;;;5072941;28;20697;-75
2023/07/01 12:06:45;;;;;;;2.43;2.13;;;26.50;50.50;;;;;;5072049;28;20193;-74
2023/07/01 12:09:27;;;;;;;3.23;2.27;;;26.50;50.30;;;;;;5072800;28;20200;-72
2023/07/01 12:11:54;;;;;;;3.57;2.40;;;26.60;50.10;;;;;;5072995;28;20230;-73
2023/07/01 12:14:22;;;;;;;3.60;2.13;;;26.60;49.80;;;;;;5072874;28;20237;-74
2023/07/01 12:16:50;;;;;;;3.63;2.23;;;26.70;49.90;;;;;;5073103;28;20241;-74
2023/07/01 12:19:17;;;;;;;3.97;2.50;;;26.70;49.90;;;;;;5092918;28;20232;-74
2023/07/01 12:21:46;;;;;;;2.80;2.40;;;26.60;49.80;;;;;;5092739;28;20676;-75
2023/07/01 12:24:20;;;;;;;3.70;2.30;;;26.50;49.80;;;;;;5092945;28;20754;-74
2023/07/01 12:26:48;;;;;;;3.63;2.47;;;26.40;49.90;;;;;;5056625;28;20205;-73
2023/07/01 12:29:15;;;;;;;3.80;2.20;;;26.50;50.70;;;;;;5092714;28;20235;-73
2023/07/01 12:31:42;;;;;;;3.87;2.47;;;26.60;50.40;;;;;;5093021;28;20197;-74
2023/07/01 12:34:09;;;;;;;2.27;1.90;;;26.60;50.20;;;;;;5092547;28;20204;-73
2023/07/01 12:36:36;;;;;;;3.13;2.20;;;26.50;50.30;;;;;;5092286;28;20885;-73
2023/07/01 12:39:07;;;;;;;2.87;2.23;;;26.70;50.20;;;;;;5091666;28;20224;-74
2023/07/01 12:41:35;;;;;;;2.83;2.30;;;26.90;50.00;;;;;;5092503;28;20228;-73
2023/07/01 12:44:03;;;;;;;5.53;2.50;;;27.20;49.50;;;;;;5073384;28;20202;-73
2023/07/01 12:46:30;;;;;;;2.77;2.10;;;27.30;48.90;;;;;;5072490;28;20293;-76
2023/07/01 12:48:57;;;;;;;4.03;2.30;;;27.50;49.30;;;;;;5072128;28;20234;-73
2023/07/01 12:51:26;;;;;;;3.97;2.03;;;27.60;48.80;;;;;;5072444;28;20267;-75
2023/07/01 12:53:54;;;;;;;4.17;2.20;;;27.70;48.40;;;;;;5071898;28;20739;-73
2023/07/01 12:56:24;;;;;;;3.03;2.30;;;27.70;48.60;;;;;;5071722;28;20228;-74